Time;durP1;ratioP1;P1;durP2;ratioP2;P2;SDS_P1;SDS_P2;PMS_P1;PMS_P2;Temp;Humidity;BMP_temperature;BMP_pressure;BME280_temperature;BME280_humidity;BME280_pressure;Samples;Min_cycle;Max_cycle;Signal;HPM_P1;HPM_P2
2021/09/10 00:01:53;;;;;;;22.48;13.27;;;15.00;99.40;;;;;;5095390;28;20381;-82
2021/09/10 00:04:18;;;;;;;15.55;13.25;;;15.00;99.40;;;;;;5094891;28;20119;-81
2021/09/10 00:06:44;;;;;;;17.05;12.45;;;15.00;99.40;;;;;;5094953;28;20024;-80
2021/09/10 00:09:10;;;;;;;17.17;13.50;;;15.00;99.40;;;;;;5094696;28;20043;-81
2021/09/10 00:11:36;;;;;;;15.27;12.35;;;14.90;99.40;;;;;;5094274;28;20095;-81
2021/09/10 00:14:02;;;;;;;18.10;13.23;;;15.00;99.50;;;;;;5094402;28;20099;-82
2021/09/10 00:16:28;;;;;;;14.63;12.55;;;14.90;99.50;;;;;;5094231;28;20485;-81
2021/09/10 00:18:54;;;;;;;15.48;11.73;;;14.90;99.70;;;;;;5094269;28;20489;-80
2021/09/10 00:21:20;;;;;;;14.57;13.07;;;14.90;99.70;;;;;;5094162;28;20028;-81
2021/09/10 00:23:46;;;;;;;17.92;13.60;;;14.90;99.80;;;;;;5094128;28;20073;-81
2021/09/10 00:26:11;;;;;;;17.02;13.10;;;14.90;99.80;;;;;;5087331;28;20036;-80
2021/09/10 00:28:37;;;;;;;17.48;12.65;;;14.80;99.80;;;;;;5094103;28;20020;-82
2021/09/10 00:31:03;;;;;;;19.67;13.23;;;14.80;99.80;;;;;;5081255;28;20103;-81
2021/09/10 00:33:29;;;;;;;18.20;13.98;;;14.80;99.80;;;;;;5093477;28;20083;-80
2021/09/10 00:35:55;;;;;;;21.92;14.05;;;14.80;99.90;;;;;;5094029;28;20063;-80
2021/09/10 00:38:21;;;;;;;17.30;13.65;;;14.70;99.90;;;;;;5093823;28;20024;-82
2021/09/10 00:40:48;;;;;;;16.02;12.52;;;14.70;99.90;;;;;;5093911;28;20047;-82
2021/09/10 00:43:14;;;;;;;19.40;14.90;;;14.70;99.90;;;;;;5093655;28;20098;-79
2021/09/10 00:45:47;;;;;;;15.40;12.60;;;14.70;99.90;;;;;;5093716;28;20404;-82
2021/09/10 00:48:14;;;;;;;17.50;13.23;;;14.70;99.90;;;;;;5095255;28;20035;-79
2021/09/10 00:50:41;;;;;;;20.75;14.70;;;14.70;99.90;;;;;;5098594;28;20028;-79
2021/09/10 00:53:08;;;;;;;20.23;13.32;;;14.70;99.90;;;;;;5096121;28;20037;-80
2021/09/10 00:55:35;;;;;;;22.67;14.07;;;14.70;99.90;;;;;;5093515;28;20103;-79
2021/09/10 00:58:01;;;;;;;16.05;11.85;;;14.80;99.90;;;;;;5093446;28;20016;-79
2021/09/10 01:00:27;;;;;;;20.83;14.05;;;14.90;99.90;;;;;;5093197;28;20110;-79
2021/09/10 01:02:54;;;;;;;19.45;13.90;;;15.00;99.90;;;;;;5093312;28;20092;-81
2021/09/10 01:05:21;;;;;;;16.85;12.20;;;15.10;99.70;;;;;;5091867;28;20059;-80
2021/09/10 01:07:48;;;;;;;15.80;12.77;;;15.10;99.50;;;;;;5093088;28;20112;-80
2021/09/10 01:10:16;;;;;;;17.00;13.52;;;15.20;99.40;;;;;;5093091;28;20020;-80
2021/09/10 01:12:42;;;;;;;17.48;12.68;;;15.20;99.30;;;;;;5092856;28;20153;-79
2021/09/10 01:15:09;;;;;;;18.10;13.40;;;15.20;99.10;;;;;;5093042;28;20035;-79
2021/09/10 01:17:38;;;;;;;15.23;12.88;;;15.30;99.00;;;;;;5092739;28;20044;-80
2021/09/10 01:20:06;;;;;;;14.05;12.65;;;15.30;98.90;;;;;;5092921;28;20031;-81
2021/09/10 01:22:32;;;;;;;17.33;12.82;;;15.30;98.80;;;;;;5092818;28;20012;-82
2021/09/10 01:25:06;;;;;;;14.55;11.90;;;15.40;98.70;;;;;;5095155;28;20058;-79
2021/09/10 01:27:32;;;;;;;18.00;12.45;;;15.40;98.60;;;;;;5093508;28;20012;-80
2021/09/10 01:29:59;;;;;;;17.25;12.30;;;15.40;98.40;;;;;;5075038;28;20481;-79
2021/09/10 01:32:25;;;;;;;13.93;11.98;;;15.40;98.30;;;;;;5093102;28;20028;-80
2021/09/10 01:34:51;;;;;;;14.83;11.63;;;15.50;98.30;;;;;;5093026;28;20095;-80
2021/09/10 01:37:17;;;;;;;13.18;11.45;;;15.50;98.10;;;;;;5093249;28;20115;-80
2021/09/10 01:39:43;;;;;;;14.18;12.68;;;15.50;98.00;;;;;;5092968;28;20016;-81
2021/09/10 01:42:09;;;;;;;15.40;11.65;;;15.50;97.90;;;;;;5093347;28;20027;-80
2021/09/10 01:44:35;;;;;;;14.32;12.48;;;15.50;97.90;;;;;;5093273;28;20580;-80
2021/09/10 01:47:00;;;;;;;15.05;12.73;;;15.60;97.80;;;;;;5092716;28;20017;-79
2021/09/10 01:49:26;;;;;;;16.15;13.25;;;15.60;97.70;;;;;;5092651;28;20028;-79
2021/09/10 01:51:52;;;;;;;14.60;12.30;;;15.60;97.60;;;;;;5074317;28;20020;-80
2021/09/10 01:54:18;;;;;;;15.27;11.50;;;15.60;97.50;;;;;;5073532;28;20034;-78
2021/09/10 01:56:43;;;;;;;14.45;12.38;;;15.60;97.40;;;;;;5078321;28;20027;-79
2021/09/10 01:59:09;;;;;;;14.13;11.68;;;15.60;97.30;;;;;;5074156;28;20020;-81
2021/09/10 02:01:35;;;;;;;13.80;11.52;;;15.50;97.30;;;;;;5091778;28;20106;-81
2021/09/10 02:04:02;;;;;;;15.00;11.75;;;15.50;97.40;;;;;;5078429;28;20178;-81
2021/09/10 02:06:27;;;;;;;14.45;12.15;;;15.40;97.50;;;;;;5092455;28;20039;-81
2021/09/10 02:08:53;;;;;;;14.50;12.40;;;15.30;97.60;;;;;;5092370;28;20024;-80
2021/09/10 02:11:20;;;;;;;15.73;12.68;;;15.20;97.80;;;;;;5092343;28;20512;-81
2021/09/10 02:13:46;;;;;;;14.40;12.70;;;15.10;98.00;;;;;;5092113;28;20020;-81
2021/09/10 02:16:12;;;;;;;17.95;13.23;;;15.10;98.50;;;;;;5092414;28;20008;-80
2021/09/10 02:18:38;;;;;;;17.30;13.65;;;15.00;98.30;;;;;;5074096;28;20508;-80
2021/09/10 02:21:04;;;;;;;16.10;13.13;;;15.00;98.50;;;;;;5092230;28;20105;-81
2021/09/10 02:23:30;;;;;;;17.05;13.55;;;15.00;98.90;;;;;;5092543;28;20443;-82
2021/09/10 02:25:57;;;;;;;14.85;12.73;;;15.00;98.80;;;;;;5092409;28;20032;-81
2021/09/10 02:28:23;;;;;;;13.73;11.35;;;15.10;98.80;;;;;;5096363;28;20016;-81
2021/09/10 02:30:49;;;;;;;15.03;12.70;;;15.10;98.70;;;;;;5096222;28;20056;-79
2021/09/10 02:33:15;;;;;;;16.52;12.60;;;15.10;98.60;;;;;;5096852;28;20020;-79
2021/09/10 02:35:41;;;;;;;14.00;11.70;;;15.20;98.50;;;;;;5096557;28;20473;-80
2021/09/10 02:38:07;;;;;;;18.63;13.35;;;15.20;98.40;;;;;;5096355;28;20091;-80
2021/09/10 02:40:34;;;;;;;15.50;13.02;;;15.10;98.40;;;;;;5096381;28;20484;-80
2021/09/10 02:42:59;;;;;;;13.73;12.13;;;15.10;98.40;;;;;;5096396;28;20032;-81
2021/09/10 02:45:25;;;;;;;19.80;13.48;;;15.10;98.50;;;;;;5095932;28;20442;-81
2021/09/10 02:47:51;;;;;;;15.45;11.60;;;15.20;98.50;;;;;;5096088;28;20024;-80
2021/09/10 02:50:17;;;;;;;15.02;12.45;;;15.20;98.50;;;;;;5097031;28;20062;-80
2021/09/10 02:52:42;;;;;;;15.98;11.93;;;15.20;98.40;;;;;;5102859;28;20035;-81
2021/09/10 02:55:09;;;;;;;17.35;12.98;;;15.20;98.40;;;;;;5097811;28;20020;-80
2021/09/10 02:57:35;;;;;;;13.35;12.05;;;15.10;98.40;;;;;;5096090;28;20389;-81
2021/09/10 03:00:01;;;;;;;13.68;11.98;;;15.10;98.50;;;;;;5095302;28;20012;-81
2021/09/10 03:02:27;;;;;;;14.68;12.63;;;15.10;98.60;;;;;;5095583;28;20039;-80
2021/09/10 03:04:53;;;;;;;14.65;12.82;;;15.10;98.60;;;;;;5095495;28;20036;-81
2021/09/10 03:07:19;;;;;;;17.77;13.35;;;15.10;98.70;;;;;;5097020;28;20074;-80
2021/09/10 03:09:45;;;;;;;17.05;13.07;;;15.10;98.60;;;;;;5096715;28;20038;-81
2021/09/10 03:12:10;;;;;;;14.82;13.25;;;15.20;98.60;;;;;;5095579;28;20012;-80
2021/09/10 03:14:36;;;;;;;16.52;13.20;;;15.20;98.50;;;;;;5095494;28;20016;-80
2021/09/10 03:17:02;;;;;;;14.27;12.77;;;15.30;98.40;;;;;;5095247;28;20035;-80
2021/09/10 03:19:28;;;;;;;16.17;12.48;;;15.40;98.40;;;;;;5095490;28;20107;-80
2021/09/10 03:21:55;;;;;;;17.45;13.55;;;15.40;98.30;;;;;;5077552;28;20507;-81
2021/09/10 03:24:21;;;;;;;16.13;13.90;;;15.40;98.20;;;;;;5095179;28;20115;-81
2021/09/10 03:26:47;;;;;;;21.10;14.40;;;15.40;98.20;;;;;;5095407;28;20107;-82
2021/09/10 03:29:13;;;;;;;22.55;14.45;;;15.40;98.20;;;;;;5095243;28;20477;-81
2021/09/10 03:31:40;;;;;;;18.10;13.02;;;15.40;98.20;;;;;;5095181;28;20116;-80
2021/09/10 03:34:06;;;;;;;18.08;11.88;;;15.40;98.20;;;;;;5095192;28;20069;-82
2021/09/10 03:36:32;;;;;;;21.83;12.77;;;15.50;98.20;;;;;;5095314;28;20520;-82
2021/09/10 03:38:58;;;;;;;16.20;13.45;;;15.50;98.20;;;;;;5094716;28;20103;-81
2021/09/10 03:41:23;;;;;;;16.38;12.75;;;15.60;98.20;;;;;;5076617;28;20104;-81
2021/09/10 03:43:52;;;;;;;16.75;14.57;;;15.70;98.10;;;;;;5095005;28;20074;-82
2021/09/10 03:46:19;;;;;;;19.33;14.00;;;15.80;97.90;;;;;;5094775;28;20032;-81
2021/09/10 03:48:45;;;;;;;16.80;13.53;;;15.90;97.70;;;;;;5094922;28;20024;-82
2021/09/10 03:51:11;;;;;;;14.52;12.75;;;15.90;97.40;;;;;;5094825;28;20030;-82
2021/09/10 03:53:38;;;;;;;16.90;12.18;;;16.00;97.20;;;;;;5094856;28;20171;-81
2021/09/10 03:56:04;;;;;;;20.65;13.60;;;16.10;97.10;;;;;;5095310;28;20024;-81
2021/09/10 03:58:30;;;;;;;15.45;12.65;;;16.10;97.00;;;;;;5076538;28;20547;-82
2021/09/10 04:00:56;;;;;;;14.85;12.43;;;16.20;96.90;;;;;;5094470;28;20108;-81
2021/09/10 04:03:22;;;;;;;15.32;12.75;;;16.20;96.80;;;;;;5094328;28;20051;-81
2021/09/10 04:05:48;;;;;;;15.40;12.75;;;16.20;97.00;;;;;;5094590;28;20028;-82
2021/09/10 04:08:14;;;;;;;15.85;12.75;;;16.30;96.60;;;;;;5094346;28;20019;-81
2021/09/10 04:10:40;;;;;;;14.02;10.93;;;16.30;96.50;;;;;;5094605;28;20027;-82
2021/09/10 04:13:06;;;;;;;15.52;12.15;;;16.30;96.40;;;;;;5094357;28;20031;-83
2021/09/10 04:15:32;;;;;;;18.40;14.23;;;16.40;96.20;;;;;;5094175;28;20024;-82
2021/09/10 04:17:59;;;;;;;14.52;12.77;;;16.40;96.10;;;;;;5094259;28;20075;-82
2021/09/10 04:20:25;;;;;;;14.23;11.70;;;16.50;96.00;;;;;;5094192;28;20020;-81
2021/09/10 04:22:51;;;;;;;13.88;11.73;;;16.50;95.80;;;;;;5094228;28;20139;-82
2021/09/10 04:25:17;;;;;;;16.77;12.95;;;16.50;95.70;;;;;;5094753;28;20064;-81
2021/09/10 04:27:43;;;;;;;13.63;12.15;;;16.60;95.60;;;;;;5094177;28;20020;-81
2021/09/10 04:30:12;;;;;;;12.48;10.88;;;16.60;95.50;;;;;;5094835;28;20393;-83
2021/09/10 04:32:39;;;;;;;14.35;11.60;;;16.70;95.40;;;;;;5094468;28;20020;-82
2021/09/10 04:35:06;;;;;;;15.15;10.27;;;16.70;95.40;;;;;;5094308;28;20028;-80
2021/09/10 04:37:32;;;;;;;14.75;12.25;;;16.70;95.30;;;;;;5093971;28;20388;-80
2021/09/10 04:39:58;;;;;;;16.05;11.40;;;16.70;95.30;;;;;;5094648;28;20024;-83
2021/09/10 04:42:23;;;;;;;14.15;12.50;;;16.80;95.20;;;;;;5094136;28;20020;-81
2021/09/10 04:44:49;;;;;;;15.73;11.85;;;16.80;95.00;;;;;;5093373;28;20043;-81
2021/09/10 04:47:15;;;;;;;18.60;12.15;;;16.90;94.90;;;;;;5093748;28;20016;-82
2021/09/10 04:49:41;;;;;;;14.30;12.15;;;16.90;94.70;;;;;;5092669;28;20028;-80
2021/09/10 04:52:08;;;;;;;17.05;11.85;;;16.90;94.70;;;;;;5093640;28;20020;-81
2021/09/10 04:54:33;;;;;;;15.73;12.25;;;17.00;94.60;;;;;;5095252;28;20024;-80
2021/09/10 04:56:59;;;;;;;13.07;11.70;;;17.00;94.50;;;;;;5096462;28;20542;-81
2021/09/10 04:59:25;;;;;;;12.18;10.60;;;17.10;94.40;;;;;;5093585;28;20078;-81
2021/09/10 05:01:51;;;;;;;14.52;11.15;;;17.20;94.30;;;;;;5093181;28;20485;-82
2021/09/10 05:04:18;;;;;;;14.70;11.23;;;17.30;94.10;;;;;;5093238;28;20111;-80
2021/09/10 05:06:44;;;;;;;13.43;11.37;;;17.30;94.00;;;;;;5093303;28;20042;-82
2021/09/10 05:09:10;;;;;;;12.15;10.88;;;17.40;93.80;;;;;;5093192;28;20020;-82
2021/09/10 05:11:36;;;;;;;13.70;11.00;;;17.50;93.60;;;;;;5093063;28;20499;-80
2021/09/10 05:14:02;;;;;;;13.15;10.90;;;17.60;93.40;;;;;;5075076;28;20024;-80
2021/09/10 05:16:28;;;;;;;38.28;13.23;;;17.80;93.20;;;;;;5092974;28;20060;-80
2021/09/10 05:18:54;;;;;;;13.35;10.85;;;17.80;93.00;;;;;;5071090;28;20048;-81
2021/09/10 05:21:19;;;;;;;15.15;11.00;;;17.80;92.80;;;;;;5072675;28;20036;-80
2021/09/10 05:23:45;;;;;;;17.15;11.23;;;17.90;92.70;;;;;;5072673;28;20020;-81
2021/09/10 05:26:11;;;;;;;15.15;11.20;;;18.10;92.60;;;;;;5072382;28;20382;-82
2021/09/10 05:28:37;;;;;;;13.82;10.52;;;18.10;92.40;;;;;;5073433;28;20493;-81
2021/09/10 05:31:03;;;;;;;16.80;11.13;;;18.20;92.10;;;;;;5073266;28;20107;-82
2021/09/10 05:33:28;;;;;;;13.20;11.07;;;18.30;91.90;;;;;;5073274;28;20054;-81
2021/09/10 05:35:54;;;;;;;14.93;10.55;;;18.40;91.60;;;;;;5073262;28;20028;-82
2021/09/10 05:38:20;;;;;;;13.18;10.68;;;18.60;91.50;;;;;;5073811;28;20027;-81
2021/09/10 05:40:46;;;;;;;13.52;10.88;;;18.70;91.20;;;;;;5072985;28;20024;-86
2021/09/10 05:43:11;;;;;;;12.63;11.27;;;18.70;91.00;;;;;;5072634;28;20020;-81
2021/09/10 05:45:38;;;;;;;13.45;11.25;;;18.80;90.70;;;;;;5072998;28;20474;-83
2021/09/10 05:48:04;;;;;;;10.57;9.53;;;18.80;90.60;;;;;;5072928;28;20027;-83
2021/09/10 05:50:30;;;;;;;16.20;11.35;;;18.70;90.80;;;;;;5070686;28;20021;-82
2021/09/10 05:52:56;;;;;;;18.05;11.00;;;18.60;90.80;;;;;;5071086;28;20041;-82
2021/09/10 05:55:21;;;;;;;14.50;10.80;;;18.50;91.00;;;;;;5072381;28;20013;-82
2021/09/10 05:57:47;;;;;;;18.50;11.30;;;18.40;91.10;;;;;;5072147;28;20147;-82
2021/09/10 06:00:16;;;;;;;15.30;10.88;;;18.40;91.20;;;;;;5072317;28;20013;-85
2021/09/10 06:02:42;;;;;;;13.18;11.30;;;18.50;91.40;;;;;;5072069;28;20035;-81
2021/09/10 06:05:08;;;;;;;13.73;10.57;;;18.70;91.10;;;;;;5072632;28;20420;-83
2021/09/10 06:07:34;;;;;;;11.32;10.13;;;19.20;90.30;;;;;;5071651;28;20031;-79
2021/09/10 06:10:00;;;;;;;11.48;10.13;;;19.50;88.40;;;;;;5073022;28;20408;-82
2021/09/10 06:12:25;;;;;;;14.52;10.40;;;19.60;88.10;;;;;;5081194;28;20021;-82
2021/09/10 06:14:51;;;;;;;13.52;10.30;;;19.70;87.80;;;;;;5073110;28;20112;-82
2021/09/10 06:17:17;;;;;;;14.50;10.57;;;19.70;87.50;;;;;;5072717;28;20067;-80
2021/09/10 06:19:43;;;;;;;15.20;10.70;;;19.60;87.40;;;;;;5073770;28;20402;-81
2021/09/10 06:22:10;;;;;;;13.93;10.00;;;19.50;87.60;;;;;;5073296;28;20024;-81
2021/09/10 06:24:37;;;;;;;14.00;10.05;;;19.40;87.50;;;;;;5073066;28;20028;-82
2021/09/10 06:27:03;;;;;;;11.02;9.90;;;19.40;88.00;;;;;;5072818;28;20111;-82
2021/09/10 06:29:29;;;;;;;25.40;14.40;;;19.40;87.70;;;;;;5072825;28;20449;-81
2021/09/10 06:31:55;;;;;;;13.60;9.68;;;19.60;88.10;;;;;;5072019;28;20055;-81
2021/09/10 06:34:21;;;;;;;11.50;10.05;;;19.90;87.00;;;;;;5074854;28;20021;-81
2021/09/10 06:36:50;;;;;;;13.23;10.25;;;20.20;85.40;;;;;;5073295;28;20028;-81
2021/09/10 06:39:17;;;;;;;10.30;8.98;;;20.40;84.70;;;;;;5072747;28;20043;-83
2021/09/10 06:41:43;;;;;;;13.68;9.40;;;20.80;83.30;;;;;;5072904;28;20029;-84
2021/09/10 06:44:10;;;;;;;11.07;8.85;;;21.00;81.90;;;;;;5071961;28;20029;-84
2021/09/10 06:46:36;;;;;;;13.00;9.15;;;21.20;81.10;;;;;;5073883;28;20110;-81
2021/09/10 06:49:02;;;;;;;15.38;8.93;;;21.20;80.10;;;;;;5074142;28;20020;-83
2021/09/10 06:51:28;;;;;;;11.90;9.15;;;21.00;80.90;;;;;;5073734;28;20021;-81
2021/09/10 06:53:54;;;;;;;10.15;7.95;;;20.90;80.70;;;;;;5072938;28;20394;-81
2021/09/10 06:56:19;;;;;;;13.57;9.00;;;20.60;81.50;;;;;;5073624;28;20089;-78
2021/09/10 06:58:45;;;;;;;15.90;9.13;;;20.60;81.90;;;;;;5075378;28;20029;-84
2021/09/10 07:01:12;;;;;;;15.35;9.32;;;20.60;81.80;;;;;;5072251;28;20111;-81
2021/09/10 07:03:38;;;;;;;13.50;8.93;;;20.50;82.10;;;;;;5072417;28;20024;-81
2021/09/10 07:06:04;;;;;;;12.13;8.65;;;20.50;82.60;;;;;;5071764;28;20052;-81
2021/09/10 07:08:33;;;;;;;11.93;8.50;;;20.50;82.30;;;;;;5071307;28;20102;-82
2021/09/10 07:11:02;;;;;;;11.00;8.35;;;20.40;81.80;;;;;;5070470;28;20036;-83
2021/09/10 07:13:29;;;;;;;12.93;8.55;;;20.30;82.70;;;;;;5073751;28;20029;-80
2021/09/10 07:15:55;;;;;;;15.90;7.90;;;20.20;83.00;;;;;;5075819;28;20020;-85
2021/09/10 07:18:21;;;;;;;8.77;7.78;;;20.20;83.30;;;;;;5074030;28;20048;-82
2021/09/10 07:20:47;;;;;;;10.65;8.80;;;20.10;82.70;;;;;;5075529;28;20405;-81
2021/09/10 07:23:14;;;;;;;13.03;8.83;;;20.00;83.20;;;;;;5075497;28;20071;-81
2021/09/10 07:25:40;;;;;;;10.93;8.55;;;20.00;82.60;;;;;;5074875;28;20043;-80
2021/09/10 07:28:06;;;;;;;12.40;6.85;;;20.00;82.30;;;;;;5073670;28;20017;-80
2021/09/10 07:30:33;;;;;;;11.65;7.97;;;19.90;82.40;;;;;;5074587;28;20020;-82
2021/09/10 07:33:00;;;;;;;9.45;7.72;;;19.80;82.70;;;;;;5073992;28;20052;-84
2021/09/10 07:35:26;;;;;;;8.88;7.15;;;19.70;82.90;;;;;;5075605;28;20035;-82
2021/09/10 07:37:52;;;;;;;10.25;7.65;;;19.70;83.20;;;;;;5074962;28;20025;-80
2021/09/10 07:40:19;;;;;;;11.60;8.00;;;19.60;83.40;;;;;;5075148;28;20017;-82
2021/09/10 07:42:45;;;;;;;9.87;7.77;;;19.60;83.70;;;;;;5075410;28;20021;-79
2021/09/10 07:45:12;;;;;;;8.40;7.40;;;19.60;84.00;;;;;;5077887;28;20025;-81
2021/09/10 07:47:39;;;;;;;11.43;8.80;;;19.70;84.10;;;;;;5076629;28;20069;-79
2021/09/10 07:50:05;;;;;;;8.68;7.40;;;19.70;84.10;;;;;;5073299;28;20078;-78
2021/09/10 07:52:31;;;;;;;11.90;8.47;;;19.80;84.00;;;;;;5073672;28;20025;-80
2021/09/10 07:54:57;;;;;;;12.18;7.97;;;19.80;83.80;;;;;;5074402;28;20512;-79
2021/09/10 07:57:23;;;;;;;11.65;7.93;;;19.80;83.50;;;;;;5073841;28;20049;-79
2021/09/10 07:59:55;;;;;;;12.07;8.38;;;19.90;83.40;;;;;;5074291;28;20520;-80
2021/09/10 08:02:21;;;;;;;12.00;7.72;;;20.00;83.30;;;;;;5074672;28;20066;-79
2021/09/10 08:04:47;;;;;;;8.43;7.50;;;20.00;83.10;;;;;;5074549;28;20029;-80
2021/09/10 08:07:13;;;;;;;14.38;8.07;;;19.90;83.00;;;;;;5074157;28;20268;-80
2021/09/10 08:09:39;;;;;;;12.50;9.27;;;19.90;83.80;;;;;;5073902;28;20042;-84
2021/09/10 08:12:05;;;;;;;13.35;8.25;;;20.00;83.90;;;;;;5073046;28;20428;-79
2021/09/10 08:14:31;;;;;;;9.77;8.18;;;20.00;83.30;;;;;;5073773;28;20043;-79
2021/09/10 08:16:56;;;;;;;10.88;8.40;;;19.90;83.30;;;;;;5074366;28;20027;-79
2021/09/10 08:19:23;;;;;;;11.65;8.45;;;19.70;83.70;;;;;;5074870;28;20120;-82
2021/09/10 08:21:49;;;;;;;12.13;8.67;;;19.60;84.40;;;;;;5059632;28;20137;-79
2021/09/10 08:24:15;;;;;;;12.95;8.55;;;19.50;85.00;;;;;;5078938;28;20021;-80
2021/09/10 08:26:41;;;;;;;12.15;8.70;;;19.50;85.50;;;;;;5077744;28;20029;-79
2021/09/10 08:29:07;;;;;;;13.25;8.27;;;19.50;85.60;;;;;;5079729;28;20032;-79
2021/09/10 08:31:33;;;;;;;12.10;8.20;;;19.50;85.90;;;;;;5076992;28;20394;-79
2021/09/10 08:34:00;;;;;;;13.02;8.85;;;19.70;85.90;;;;;;5079961;28;20021;-81
2021/09/10 08:36:26;;;;;;;;;;;19.90;85.20;;;;;;5074371;28;20033;-81
2021/09/10 08:38:52;;;;;;;13.70;9.30;;;20.10;85.20;;;;;;5076486;28;20403;-79
2021/09/10 08:41:22;;;;;;;11.52;8.32;;;20.30;84.60;;;;;;5057050;28;20025;-81
2021/09/10 08:43:49;;;;;;;11.23;8.38;;;20.50;82.90;;;;;;5067993;28;20027;-79
2021/09/10 08:46:17;;;;;;;9.93;8.70;;;20.60;82.00;;;;;;5056550;28;20098;-80
2021/09/10 08:48:45;;;;;;;11.70;9.07;;;20.60;80.90;;;;;;5083122;28;20025;-79
2021/09/10 08:51:11;;;;;;;10.55;7.93;;;20.50;81.50;;;;;;5085641;28;20023;-81
2021/09/10 08:53:37;;;;;;;10.20;8.60;;;20.40;81.50;;;;;;5079558;28;20052;-78
2021/09/10 08:56:03;;;;;;;11.05;8.93;;;20.20;81.90;;;;;;5086370;28;20431;-81
2021/09/10 08:58:29;;;;;;;10.95;9.40;;;20.10;82.40;;;;;;5091717;28;20404;-80
2021/09/10 09:01:02;;;;;;;11.23;8.07;;;20.20;82.80;;;;;;5093336;28;20039;-80
2021/09/10 09:03:29;;;;;;;13.38;8.00;;;20.30;82.20;;;;;;5072039;28;20021;-82
2021/09/10 09:05:56;;;;;;;12.45;8.43;;;20.30;82.10;;;;;;5073518;28;20393;-83
2021/09/10 09:08:22;;;;;;;11.40;7.82;;;20.40;82.40;;;;;;5073166;28;20025;-81
2021/09/10 09:10:58;;;;;;;8.35;7.13;;;20.50;81.90;;;;;;5072863;28;20021;-83
2021/09/10 09:13:35;;;;;;;11.95;8.15;;;20.60;80.60;;;;;;5072592;28;20443;-81
2021/09/10 09:16:26;;;;;;;9.95;7.25;;;20.70;80.30;;;;;;5057077;28;20035;-81
2021/09/10 09:18:55;;;;;;;8.68;6.43;;;21.00;80.10;;;;;;5090566;28;20065;-82
2021/09/10 09:21:30;;;;;;;11.05;6.75;;;21.70;78.20;;;;;;5081232;28;20024;-81
2021/09/10 09:24:17;;;;;;;8.82;6.90;;;22.20;74.70;;;;;;5090950;28;20425;-79
2021/09/10 09:26:45;;;;;;;7.95;7.15;;;22.40;73.50;;;;;;5073108;28;20032;-81
2021/09/10 09:29:16;;;;;;;9.98;7.35;;;22.30;73.60;;;;;;5091302;28;20500;-79
2021/09/10 09:31:52;;;;;;;10.93;7.50;;;22.60;73.50;;;;;;5087889;28;20423;-82
2021/09/10 09:34:46;;;;;;;10.05;6.68;;;23.20;71.60;;;;;;5090157;28;20031;-80
2021/09/10 09:37:12;;;;;;;7.43;6.20;;;23.70;71.10;;;;;;5084053;28;20033;-81
2021/09/10 09:40:01;;;;;;;10.40;6.50;;;23.60;67.90;;;;;;5077280;28;20032;-81
2021/09/10 09:42:30;;;;;;;7.93;5.47;;;23.50;69.10;;;;;;5087778;28;20366;-80
2021/09/10 09:45:26;;;;;;;14.05;6.53;;;23.10;68.40;;;;;;5057334;28;20361;-81
2021/09/10 09:47:52;;;;;;;7.97;6.05;;;22.70;69.10;;;;;;5073624;28;20070;-82
2021/09/10 09:50:21;;;;;;;7.65;6.38;;;22.20;70.60;;;;;;5072993;28;20017;-82
2021/09/10 09:52:49;;;;;;;8.00;5.40;;;21.80;71.40;;;;;;5072920;28;20017;-80
2021/09/10 09:55:15;;;;;;;7.05;5.72;;;21.60;72.20;;;;;;5073087;28;20020;-82
2021/09/10 09:57:43;;;;;;;7.95;5.90;;;21.50;72.90;;;;;;5060494;28;20086;-82
2021/09/10 10:00:10;;;;;;;11.55;7.10;;;21.40;73.20;;;;;;5087544;28;20099;-81
2021/09/10 10:02:37;;;;;;;10.32;6.60;;;21.50;74.10;;;;;;5073569;28;20028;-80
2021/09/10 10:05:06;;;;;;;9.55;6.32;;;21.70;73.80;;;;;;5073213;28;20036;-82
2021/09/10 10:07:43;;;;;;;8.65;6.55;;;22.30;72.90;;;;;;5074622;28;20013;-83
2021/09/10 10:10:12;;;;;;;11.50;5.40;;;23.10;70.10;;;;;;5073983;28;20056;-81
2021/09/10 10:12:41;;;;;;;6.65;5.63;;;24.00;67.50;;;;;;5053769;28;20413;-80
2021/09/10 10:15:28;;;;;;;6.75;5.03;;;25.40;65.10;;;;;;5060068;28;20039;-83
2021/09/10 10:17:56;;;;;;;7.13;5.22;;;26.60;61.30;;;;;;5064100;28;20045;-80
2021/09/10 10:20:44;;;;;;;9.18;5.25;;;26.90;57.00;;;;;;5066795;28;20411;-82
2021/09/10 10:23:41;;;;;;;7.38;5.28;;;26.70;57.10;;;;;;5062486;28;20443;-82
2021/09/10 10:26:20;;;;;;;6.93;5.65;;;26.30;58.20;;;;;;5044168;28;20517;-80
2021/09/10 10:28:51;;;;;;;6.43;4.15;;;25.90;57.50;;;;;;5073001;28;20474;-83
2021/09/10 10:31:18;;;;;;;5.70;4.53;;;25.70;57.20;;;;;;5071869;28;20350;-81
2021/09/10 10:34:04;;;;;;;8.55;4.82;;;25.30;57.40;;;;;;5054719;28;20025;-81
2021/09/10 10:36:30;;;;;;;12.35;5.78;;;24.90;59.40;;;;;;5071171;28;20020;-80
2021/09/10 10:39:08;;;;;;;7.68;4.95;;;24.80;59.20;;;;;;5073301;28;20023;-86
2021/09/10 10:42:05;;;;;;;6.28;4.85;;;24.80;59.50;;;;;;5071594;28;20078;-81
2021/09/10 10:44:34;;;;;;;10.07;5.05;;;24.60;60.00;;;;;;5061067;28;20039;-82
2021/09/10 10:47:08;;;;;;;6.75;6.00;;;24.30;60.50;;;;;;5072393;28;20088;-80
2021/09/10 10:49:37;;;;;;;8.20;5.57;;;24.00;61.90;;;;;;5074313;28;20032;-81
2021/09/10 10:52:29;;;;;;;10.63;5.68;;;23.80;62.40;;;;;;5075145;28;20027;-82
2021/09/10 10:55:17;;;;;;;10.38;5.50;;;23.50;63.40;;;;;;5075910;28;20028;-80
2021/09/10 10:57:44;;;;;;;9.82;5.95;;;23.20;65.00;;;;;;5075965;28;20025;-81
2021/09/10 11:00:28;;;;;;;9.93;6.00;;;23.10;65.90;;;;;;5074465;28;20023;-81
2021/09/10 11:03:18;;;;;;;6.28;4.70;;;23.10;66.20;;;;;;5076286;28;20028;-83
2021/09/10 11:05:52;;;;;;;9.68;6.32;;;23.20;65.60;;;;;;5077795;28;20036;-82
2021/09/10 11:08:37;;;;;;;7.45;5.32;;;23.10;65.40;;;;;;5079337;28;20032;-81
2021/09/10 11:11:03;;;;;;;9.38;6.05;;;23.10;66.20;;;;;;5075586;28;20085;-82
2021/09/10 11:13:30;;;;;;;8.80;6.13;;;23.10;66.30;;;;;;5085822;28;20028;-83
2021/09/10 11:15:56;;;;;;;7.25;5.68;;;22.90;66.00;;;;;;5077038;28;20017;-81
2021/09/10 11:18:24;;;;;;;7.72;5.25;;;22.60;66.30;;;;;;5074375;28;20052;-81
2021/09/10 11:20:53;;;;;;;6.78;5.38;;;22.40;66.90;;;;;;5075687;28;20382;-84
2021/09/10 11:23:26;;;;;;;9.25;5.63;;;22.20;67.80;;;;;;5075537;28;20074;-81
2021/09/10 11:25:54;;;;;;;8.27;5.57;;;22.10;68.60;;;;;;5075422;28;20068;-83
2021/09/10 11:28:21;;;;;;;11.15;5.43;;;21.90;69.10;;;;;;5075679;28;20017;-82
2021/09/10 11:30:50;;;;;;;6.93;5.65;;;21.80;69.40;;;;;;5075197;28;20056;-82
2021/09/10 11:33:17;;;;;;;9.63;5.68;;;21.80;69.90;;;;;;5075178;28;20056;-82
2021/09/10 11:35:43;;;;;;;10.65;5.80;;;21.90;69.40;;;;;;5064073;28;20032;-79
2021/09/10 11:38:13;;;;;;;7.20;6.05;;;21.90;69.60;;;;;;5064451;28;20098;-81
2021/09/10 11:40:44;;;;;;;11.57;6.35;;;21.90;70.10;;;;;;5075836;28;20663;-80
2021/09/10 11:43:24;;;;;;;11.00;7.22;;;21.90;70.30;;;;;;5063267;28;20090;-82
2021/09/10 11:46:01;;;;;;;9.20;6.60;;;21.90;70.60;;;;;;5074416;28;20397;-80
2021/09/10 11:48:49;;;;;;;8.35;6.38;;;21.90;70.00;;;;;;5065671;28;20337;-81
2021/09/10 11:51:34;;;;;;;8.00;5.82;;;21.80;70.80;;;;;;5075406;28;20028;-81
2021/09/10 11:54:00;;;;;;;9.93;6.43;;;21.70;70.90;;;;;;5075192;28;20024;-81
2021/09/10 11:56:34;;;;;;;15.48;6.63;;;21.50;72.20;;;;;;5066659;28;20072;-82
2021/09/10 11:59:00;;;;;;;8.35;6.60;;;21.40;72.60;;;;;;5075406;28;20155;-82
2021/09/10 12:01:28;;;;;;;8.02;5.57;;;21.20;73.10;;;;;;5076069;28;20066;-84
2021/09/10 12:04:11;;;;;;;9.65;5.75;;;21.00;73.30;;;;;;5067025;28;20112;-86
2021/09/10 12:06:44;;;;;;;6.85;5.50;;;20.80;73.80;;;;;;5072600;28;20159;-82
2021/09/10 12:09:14;;;;;;;7.32;5.50;;;20.60;74.50;;;;;;5076299;28;20229;-79
2021/09/10 12:12:02;;;;;;;12.07;6.65;;;20.50;75.30;;;;;;5075306;28;20041;-81
2021/09/10 12:14:32;;;;;;;7.85;6.22;;;20.60;75.10;;;;;;5087466;28;20053;-81
2021/09/10 12:17:05;;;;;;;9.45;5.38;;;20.80;74.70;;;;;;5076419;28;20397;-84
2021/09/10 12:19:31;;;;;;;9.25;5.63;;;21.10;74.40;;;;;;5073337;28;20118;-84
2021/09/10 12:21:57;;;;;;;8.80;6.25;;;21.30;73.50;;;;;;5075646;28;20024;-83
2021/09/10 12:24:23;;;;;;;10.20;6.68;;;21.60;72.60;;;;;;5075689;28;20428;-84
2021/09/10 12:26:53;;;;;;;10.18;8.75;;;21.90;71.80;;;;;;5075084;28;20104;-87
2021/09/10 12:29:28;;;;;;;13.90;9.32;;;22.20;71.20;;;;;;5076063;28;20484;-80
2021/09/10 12:31:55;;;;;;;9.00;6.10;;;22.30;70.50;;;;;;5074569;28;20021;-81
2021/09/10 12:34:21;;;;;;;9.82;7.00;;;22.20;70.30;;;;;;5073516;28;20028;-82
2021/09/10 12:36:48;;;;;;;12.80;6.23;;;22.10;70.20;;;;;;5073894;28;20064;-83
2021/09/10 12:39:15;;;;;;;8.48;5.85;;;21.90;70.50;;;;;;5073930;28;20104;-87